Wheatland, Indiana
Current Conditions -  °F | °C
As of 10:15 AM on Sunday 25 Jan 2015 (Local Time) from KDCY Reporting Station
Light Rain Light Rain  
Wind Chill: 33°   Ceiling: 4000
Heat Index: 38°   Visibility: 10mi
Dew Point: 33°   Wind: 7mph
Humidity: 79%   Direction: 180°S
Pressure: 29.66"   Gusts: NA
Location:  38.66°N, 87.31°W
Report Text: KDCY 251615Z AUTO 18006KT 10SM -RA BKN040 OVC060 04/00 A2966 RMK AO2 P0001 T00360003
Loading
Personal Weather Stations






























Interactive Weather Map New forecast layout! Learn more

10-Day Weather Forecast

Advertisements
Track Severe Weather on mobile